sensor_id;sensor_type;location;lat;lon;timestamp;P1;durP1;ratioP1;P2;durP2;ratioP2
3083;SDS011;1552;51.952;7.618;2024-03-08T00:02:15;24.97;;;11.23;;
3083;SDS011;1552;51.952;7.618;2024-03-08T00:04:41;18.87;;;10.93;;
3083;SDS011;1552;51.952;7.618;2024-03-08T00:07:08;23.57;;;12.57;;
3083;SDS011;1552;51.952;7.618;2024-03-08T00:09:34;22.17;;;12.10;;
3083;SDS011;1552;51.952;7.618;2024-03-08T00:12:00;22.53;;;12.23;;
3083;SDS011;1552;51.952;7.618;2024-03-08T00:14:26;26.03;;;12.47;;
3083;SDS011;1552;51.952;7.618;2024-03-08T00:16:54;21.07;;;12.07;;
3083;SDS011;1552;51.952;7.618;2024-03-08T00:19:20;23.67;;;12.03;;
3083;SDS011;1552;51.952;7.618;2024-03-08T00:21:47;19.53;;;12.23;;
3083;SDS011;1552;51.952;7.618;2024-03-08T00:24:13;23.20;;;13.30;;
3083;SDS011;1552;51.952;7.618;2024-03-08T00:26:39;26.13;;;12.60;;
3083;SDS011;1552;51.952;7.618;2024-03-08T00:29:07;26.47;;;13.20;;
3083;SDS011;1552;51.952;7.618;2024-03-08T00:31:33;25.90;;;12.73;;
3083;SDS011;1552;51.952;7.618;2024-03-08T00:34:01;20.30;;;12.93;;
3083;SDS011;1552;51.952;7.618;2024-03-08T00:36:27;21.43;;;12.20;;
3083;SDS011;1552;51.952;7.618;2024-03-08T00:38:55;24.43;;;12.67;;
3083;SDS011;1552;51.952;7.618;2024-03-08T00:41:21;25.50;;;12.83;;
3083;SDS011;1552;51.952;7.618;2024-03-08T00:43:47;27.73;;;14.10;;
3083;SDS011;1552;51.952;7.618;2024-03-08T00:46:14;24.27;;;12.50;;
3083;SDS011;1552;51.952;7.618;2024-03-08T00:48:41;20.43;;;12.57;;
3083;SDS011;1552;51.952;7.618;2024-03-08T00:51:11;24.90;;;13.13;;
3083;SDS011;1552;51.952;7.618;2024-03-08T00:53:37;24.10;;;13.07;;
3083;SDS011;1552;51.952;7.618;2024-03-08T00:56:03;27.53;;;14.23;;
3083;SDS011;1552;51.952;7.618;2024-03-08T00:58:30;22.87;;;12.20;;
3083;SDS011;1552;51.952;7.618;2024-03-08T01:00:56;24.67;;;13.70;;
3083;SDS011;1552;51.952;7.618;2024-03-08T01:03:22;25.40;;;13.77;;
3083;SDS011;1552;51.952;7.618;2024-03-08T01:05:49;21.93;;;13.17;;
3083;SDS011;1552;51.952;7.618;2024-03-08T01:08:17;27.07;;;14.10;;
3083;SDS011;1552;51.952;7.618;2024-03-08T01:10:44;24.23;;;13.00;;
3083;SDS011;1552;51.952;7.618;2024-03-08T01:13:10;28.30;;;13.87;;
3083;SDS011;1552;51.952;7.618;2024-03-08T01:15:37;24.17;;;12.57;;
3083;SDS011;1552;51.952;7.618;2024-03-08T01:18:06;20.77;;;12.03;;
3083;SDS011;1552;51.952;7.618;2024-03-08T01:20:32;22.17;;;13.40;;
3083;SDS011;1552;51.952;7.618;2024-03-08T01:22:59;28.43;;;14.03;;
3083;SDS011;1552;51.952;7.618;2024-03-08T01:25:26;25.97;;;14.23;;
3083;SDS011;1552;51.952;7.618;2024-03-08T01:27:53;26.47;;;13.67;;
3083;SDS011;1552;51.952;7.618;2024-03-08T01:30:19;24.03;;;12.77;;
3083;SDS011;1552;51.952;7.618;2024-03-08T01:32:45;25.20;;;13.33;;
3083;SDS011;1552;51.952;7.618;2024-03-08T01:35:12;26.93;;;13.77;;
3083;SDS011;1552;51.952;7.618;2024-03-08T01:37:38;28.83;;;13.70;;
3083;SDS011;1552;51.952;7.618;2024-03-08T01:40:05;26.83;;;14.03;;
3083;SDS011;1552;51.952;7.618;2024-03-08T01:42:33;24.03;;;12.53;;
3083;SDS011;1552;51.952;7.618;2024-03-08T01:45:02;26.47;;;13.93;;
3083;SDS011;1552;51.952;7.618;2024-03-08T01:47:30;26.10;;;13.63;;
3083;SDS011;1552;51.952;7.618;2024-03-08T01:49:57;26.10;;;12.93;;
3083;SDS011;1552;51.952;7.618;2024-03-08T01:52:25;30.70;;;14.73;;
3083;SDS011;1552;51.952;7.618;2024-03-08T01:54:51;24.27;;;13.63;;
3083;SDS011;1552;51.952;7.618;2024-03-08T01:57:18;24.10;;;13.70;;
3083;SDS011;1552;51.952;7.618;2024-03-08T01:59:46;32.07;;;14.60;;
3083;SDS011;1552;51.952;7.618;2024-03-08T02:02:12;27.40;;;15.10;;
3083;SDS011;1552;51.952;7.618;2024-03-08T02:04:40;24.20;;;13.73;;
3083;SDS011;1552;51.952;7.618;2024-03-08T02:07:07;31.90;;;14.20;;
3083;SDS011;1552;51.952;7.618;2024-03-08T02:09:33;25.73;;;13.80;;
3083;SDS011;1552;51.952;7.618;2024-03-08T02:12:00;27.50;;;14.17;;
3083;SDS011;1552;51.952;7.618;2024-03-08T02:14:26;23.87;;;13.50;;
3083;SDS011;1552;51.952;7.618;2024-03-08T02:16:54;27.53;;;13.83;;
3083;SDS011;1552;51.952;7.618;2024-03-08T02:19:22;23.97;;;13.77;;
3083;SDS011;1552;51.952;7.618;2024-03-08T02:21:50;27.17;;;13.93;;
3083;SDS011;1552;51.952;7.618;2024-03-08T02:24:16;24.90;;;14.70;;
3083;SDS011;1552;51.952;7.618;2024-03-08T02:26:43;24.90;;;14.03;;
3083;SDS011;1552;51.952;7.618;2024-03-08T02:29:09;30.07;;;14.60;;
3083;SDS011;1552;51.952;7.618;2024-03-08T02:31:35;27.37;;;14.03;;
3083;SDS011;1552;51.952;7.618;2024-03-08T02:34:01;26.40;;;13.87;;
3083;SDS011;1552;51.952;7.618;2024-03-08T02:36:28;27.27;;;14.30;;
3083;SDS011;1552;51.952;7.618;2024-03-08T02:38:55;26.67;;;14.87;;
3083;SDS011;1552;51.952;7.618;2024-03-08T02:41:22;24.43;;;14.73;;
3083;SDS011;1552;51.952;7.618;2024-03-08T02:43:48;26.60;;;13.90;;
3083;SDS011;1552;51.952;7.618;2024-03-08T02:46:15;32.43;;;14.07;;
3083;SDS011;1552;51.952;7.618;2024-03-08T02:48:41;25.13;;;14.10;;
3083;SDS011;1552;51.952;7.618;2024-03-08T02:51:08;26.23;;;14.43;;
3083;SDS011;1552;51.952;7.618;2024-03-08T02:53:35;26.50;;;13.13;;
3083;SDS011;1552;51.952;7.618;2024-03-08T02:56:04;26.27;;;14.57;;
3083;SDS011;1552;51.952;7.618;2024-03-08T02:58:34;31.43;;;14.53;;
3083;SDS011;1552;51.952;7.618;2024-03-08T03:01:00;26.50;;;15.13;;
3083;SDS011;1552;51.952;7.618;2024-03-08T03:03:26;30.57;;;15.50;;
3083;SDS011;1552;51.952;7.618;2024-03-08T03:05:52;28.67;;;15.30;;
3083;SDS011;1552;51.952;7.618;2024-03-08T03:08:20;30.90;;;15.03;;
3083;SDS011;1552;51.952;7.618;2024-03-08T03:10:46;32.93;;;15.20;;
3083;SDS011;1552;51.952;7.618;2024-03-08T03:13:14;25.13;;;15.27;;
3083;SDS011;1552;51.952;7.618;2024-03-08T03:15:40;28.23;;;14.67;;
3083;SDS011;1552;51.952;7.618;2024-03-08T03:18:07;30.03;;;15.80;;
3083;SDS011;1552;51.952;7.618;2024-03-08T03:20:34;27.03;;;15.40;;
3083;SDS011;1552;51.952;7.618;2024-03-08T03:23:05;25.83;;;14.90;;
3083;SDS011;1552;51.952;7.618;2024-03-08T03:25:33;30.07;;;15.47;;
3083;SDS011;1552;51.952;7.618;2024-03-08T03:28:00;28.20;;;15.17;;
3083;SDS011;1552;51.952;7.618;2024-03-08T03:30:28;30.17;;;16.07;;
3083;SDS011;1552;51.952;7.618;2024-03-08T03:32:58;28.77;;;15.27;;
3083;SDS011;1552;51.952;7.618;2024-03-08T03:35:25;31.60;;;17.23;;
3083;SDS011;1552;51.952;7.618;2024-03-08T03:37:51;29.87;;;16.40;;
3083;SDS011;1552;51.952;7.618;2024-03-08T03:40:26;34.30;;;15.87;;
3083;SDS011;1552;51.952;7.618;2024-03-08T03:42:52;34.10;;;15.60;;
3083;SDS011;1552;51.952;7.618;2024-03-08T03:45:19;31.70;;;16.13;;
3083;SDS011;1552;51.952;7.618;2024-03-08T03:47:46;29.27;;;15.20;;
3083;SDS011;1552;51.952;7.618;2024-03-08T03:50:13;29.03;;;15.57;;
3083;SDS011;1552;51.952;7.618;2024-03-08T03:52:39;24.67;;;15.53;;
3083;SDS011;1552;51.952;7.618;2024-03-08T03:55:07;27.80;;;15.90;;
3083;SDS011;1552;51.952;7.618;2024-03-08T03:57:33;27.83;;;16.10;;
3083;SDS011;1552;51.952;7.618;2024-03-08T04:00:00;25.23;;;14.70;;
3083;SDS011;1552;51.952;7.618;2024-03-08T04:02:27;33.97;;;15.30;;
3083;SDS011;1552;51.952;7.618;2024-03-08T04:04:55;29.37;;;16.20;;
3083;SDS011;1552;51.952;7.618;2024-03-08T04:07:21;31.23;;;15.97;;
3083;SDS011;1552;51.952;7.618;2024-03-08T04:09:48;26.83;;;15.23;;
3083;SDS011;1552;51.952;7.618;2024-03-08T04:12:14;31.07;;;15.53;;
3083;SDS011;1552;51.952;7.618;2024-03-08T04:14:41;32.10;;;15.80;;
3083;SDS011;1552;51.952;7.618;2024-03-08T04:17:08;29.50;;;16.37;;
3083;SDS011;1552;51.952;7.618;2024-03-08T04:19:36;31.50;;;15.57;;
3083;SDS011;1552;51.952;7.618;2024-03-08T04:22:04;32.10;;;16.53;;
3083;SDS011;1552;51.952;7.618;2024-03-08T04:24:32;34.37;;;16.00;;
3083;SDS011;1552;51.952;7.618;2024-03-08T04:26:58;32.00;;;16.93;;
3083;SDS011;1552;51.952;7.618;2024-03-08T04:29:25;27.57;;;15.20;;
3083;SDS011;1552;51.952;7.618;2024-03-08T04:31:52;29.20;;;16.63;;
3083;SDS011;1552;51.952;7.618;2024-03-08T04:34:19;30.07;;;16.67;;
3083;SDS011;1552;51.952;7.618;2024-03-08T04:36:45;34.37;;;15.43;;
3083;SDS011;1552;51.952;7.618;2024-03-08T04:39:13;32.87;;;15.97;;
3083;SDS011;1552;51.952;7.618;2024-03-08T04:41:40;30.93;;;16.80;;
3083;SDS011;1552;51.952;7.618;2024-03-08T04:44:08;36.27;;;16.87;;
3083;SDS011;1552;51.952;7.618;2024-03-08T04:46:34;32.17;;;16.43;;
3083;SDS011;1552;51.952;7.618;2024-03-08T04:49:01;32.43;;;17.07;;
3083;SDS011;1552;51.952;7.618;2024-03-08T04:51:27;31.23;;;16.60;;
3083;SDS011;1552;51.952;7.618;2024-03-08T04:53:54;36.07;;;17.27;;
3083;SDS011;1552;51.952;7.618;2024-03-08T04:56:25;36.50;;;16.40;;
3083;SDS011;1552;51.952;7.618;2024-03-08T04:58:52;28.77;;;15.70;;
3083;SDS011;1552;51.952;7.618;2024-03-08T05:01:18;37.13;;;18.53;;
3083;SDS011;1552;51.952;7.618;2024-03-08T05:03:44;30.73;;;15.83;;
3083;SDS011;1552;51.952;7.618;2024-03-08T05:06:12;29.67;;;15.83;;
3083;SDS011;1552;51.952;7.618;2024-03-08T05:08:39;31.23;;;17.60;;
3083;SDS011;1552;51.952;7.618;2024-03-08T05:11:05;35.83;;;17.93;;
3083;SDS011;1552;51.952;7.618;2024-03-08T05:13:33;30.37;;;16.30;;
3083;SDS011;1552;51.952;7.618;2024-03-08T05:16:00;32.97;;;17.23;;
3083;SDS011;1552;51.952;7.618;2024-03-08T05:18:26;29.03;;;15.07;;
3083;SDS011;1552;51.952;7.618;2024-03-08T05:20:54;32.53;;;17.13;;
3083;SDS011;1552;51.952;7.618;2024-03-08T05:23:20;30.03;;;17.53;;
3083;SDS011;1552;51.952;7.618;2024-03-08T05:25:47;38.43;;;17.97;;
3083;SDS011;1552;51.952;7.618;2024-03-08T05:28:13;27.20;;;14.90;;
3083;SDS011;1552;51.952;7.618;2024-03-08T05:30:41;37.43;;;18.73;;
3083;SDS011;1552;51.952;7.618;2024-03-08T05:33:07;34.10;;;18.60;;
3083;SDS011;1552;51.952;7.618;2024-03-08T05:35:35;31.47;;;16.63;;
3083;SDS011;1552;51.952;7.618;2024-03-08T05:38:01;30.07;;;16.80;;
3083;SDS011;1552;51.952;7.618;2024-03-08T05:40:27;30.47;;;16.57;;
3083;SDS011;1552;51.952;7.618;2024-03-08T05:42:56;29.57;;;15.80;;
3083;SDS011;1552;51.952;7.618;2024-03-08T05:45:23;32.63;;;17.33;;
3083;SDS011;1552;51.952;7.618;2024-03-08T05:47:51;31.93;;;18.53;;
3083;SDS011;1552;51.952;7.618;2024-03-08T05:50:17;29.20;;;16.07;;
3083;SDS011;1552;51.952;7.618;2024-03-08T05:52:44;32.93;;;16.80;;
3083;SDS011;1552;51.952;7.618;2024-03-08T05:55:10;30.23;;;16.27;;
3083;SDS011;1552;51.952;7.618;2024-03-08T05:57:39;31.63;;;17.13;;
3083;SDS011;1552;51.952;7.618;2024-03-08T06:00:06;31.70;;;17.10;;
3083;SDS011;1552;51.952;7.618;2024-03-08T06:02:32;31.40;;;15.87;;
3083;SDS011;1552;51.952;7.618;2024-03-08T06:05:00;36.20;;;18.30;;
3083;SDS011;1552;51.952;7.618;2024-03-08T06:07:27;30.43;;;15.60;;
3083;SDS011;1552;51.952;7.618;2024-03-08T06:09:53;32.87;;;16.63;;
3083;SDS011;1552;51.952;7.618;2024-03-08T06:12:19;38.00;;;18.63;;
3083;SDS011;1552;51.952;7.618;2024-03-08T06:14:46;36.83;;;18.07;;
3083;SDS011;1552;51.952;7.618;2024-03-08T06:17:12;30.73;;;17.57;;
3083;SDS011;1552;51.952;7.618;2024-03-08T06:19:40;27.83;;;16.20;;
3083;SDS011;1552;51.952;7.618;2024-03-08T06:22:07;28.67;;;15.50;;
3083;SDS011;1552;51.952;7.618;2024-03-08T06:24:34;32.73;;;17.97;;
3083;SDS011;1552;51.952;7.618;2024-03-08T06:27:05;35.30;;;17.10;;
3083;SDS011;1552;51.952;7.618;2024-03-08T06:29:32;33.07;;;17.20;;
3083;SDS011;1552;51.952;7.618;2024-03-08T06:31:58;31.97;;;17.47;;
3083;SDS011;1552;51.952;7.618;2024-03-08T06:34:25;29.70;;;16.40;;
3083;SDS011;1552;51.952;7.618;2024-03-08T06:36:51;45.60;;;18.30;;
3083;SDS011;1552;51.952;7.618;2024-03-08T06:39:21;30.97;;;16.53;;
3083;SDS011;1552;51.952;7.618;2024-03-08T06:41:50;33.87;;;16.50;;
3083;SDS011;1552;51.952;7.618;2024-03-08T06:44:16;33.13;;;16.27;;
3083;SDS011;1552;51.952;7.618;2024-03-08T06:46:42;33.53;;;17.53;;
3083;SDS011;1552;51.952;7.618;2024-03-08T06:49:09;34.10;;;16.27;;
3083;SDS011;1552;51.952;7.618;2024-03-08T06:51:36;31.10;;;16.07;;
3083;SDS011;1552;51.952;7.618;2024-03-08T06:54:02;33.23;;;17.67;;
3083;SDS011;1552;51.952;7.618;2024-03-08T06:56:35;33.13;;;17.83;;
3083;SDS011;1552;51.952;7.618;2024-03-08T06:59:01;33.10;;;16.53;;
3083;SDS011;1552;51.952;7.618;2024-03-08T07:01:28;34.60;;;18.20;;
3083;SDS011;1552;51.952;7.618;2024-03-08T07:03:57;34.30;;;17.33;;
3083;SDS011;1552;51.952;7.618;2024-03-08T07:06:23;31.33;;;16.27;;
3083;SDS011;1552;51.952;7.618;2024-03-08T07:08:50;33.23;;;16.10;;
3083;SDS011;1552;51.952;7.618;2024-03-08T07:11:16;34.77;;;17.30;;
3083;SDS011;1552;51.952;7.618;2024-03-08T07:13:44;32.60;;;17.40;;
3083;SDS011;1552;51.952;7.618;2024-03-08T07:16:11;31.87;;;17.00;;
3083;SDS011;1552;51.952;7.618;2024-03-08T07:18:37;36.10;;;17.60;;
3083;SDS011;1552;51.952;7.618;2024-03-08T07:21:05;34.33;;;15.83;;
3083;SDS011;1552;51.952;7.618;2024-03-08T07:23:31;31.53;;;15.83;;
3083;SDS011;1552;51.952;7.618;2024-03-08T07:26:25;29.37;;;16.97;;
3083;SDS011;1552;51.952;7.618;2024-03-08T07:28:53;32.53;;;17.13;;
3083;SDS011;1552;51.952;7.618;2024-03-08T07:31:20;28.27;;;15.70;;
3083;SDS011;1552;51.952;7.618;2024-03-08T07:33:52;35.37;;;17.30;;
3083;SDS011;1552;51.952;7.618;2024-03-08T07:36:19;35.43;;;17.97;;
3083;SDS011;1552;51.952;7.618;2024-03-08T07:38:47;42.47;;;18.33;;
3083;SDS011;1552;51.952;7.618;2024-03-08T07:41:13;31.27;;;17.37;;
3083;SDS011;1552;51.952;7.618;2024-03-08T07:43:41;35.80;;;17.60;;
3083;SDS011;1552;51.952;7.618;2024-03-08T07:46:09;28.77;;;15.93;;
3083;SDS011;1552;51.952;7.618;2024-03-08T07:48:35;33.33;;;16.57;;
3083;SDS011;1552;51.952;7.618;2024-03-08T07:51:01;34.43;;;16.27;;
3083;SDS011;1552;51.952;7.618;2024-03-08T07:53:28;30.90;;;16.93;;
3083;SDS011;1552;51.952;7.618;2024-03-08T07:55:54;33.27;;;17.43;;
3083;SDS011;1552;51.952;7.618;2024-03-08T07:58:20;35.67;;;18.70;;
3083;SDS011;1552;51.952;7.618;2024-03-08T08:00:47;30.53;;;16.73;;
3083;SDS011;1552;51.952;7.618;2024-03-08T08:03:15;33.20;;;16.97;;
3083;SDS011;1552;51.952;7.618;2024-03-08T08:05:45;31.03;;;16.63;;
3083;SDS011;1552;51.952;7.618;2024-03-08T08:08:12;36.50;;;18.33;;
3083;SDS011;1552;51.952;7.618;2024-03-08T08:10:38;34.77;;;17.77;;
3083;SDS011;1552;51.952;7.618;2024-03-08T08:13:04;35.17;;;18.37;;
3083;SDS011;1552;51.952;7.618;2024-03-08T08:15:31;33.83;;;16.87;;
3083;SDS011;1552;51.952;7.618;2024-03-08T08:17:58;38.17;;;17.83;;
3083;SDS011;1552;51.952;7.618;2024-03-08T08:20:26;35.67;;;18.10;;
3083;SDS011;1552;51.952;7.618;2024-03-08T08:22:54;27.43;;;16.00;;
3083;SDS011;1552;51.952;7.618;2024-03-08T08:25:20;38.10;;;18.03;;
3083;SDS011;1552;51.952;7.618;2024-03-08T08:27:49;36.17;;;17.37;;
3083;SDS011;1552;51.952;7.618;2024-03-08T08:30:16;37.37;;;17.30;;
3083;SDS011;1552;51.952;7.618;2024-03-08T08:32:42;32.37;;;17.57;;
3083;SDS011;1552;51.952;7.618;2024-03-08T08:35:08;40.67;;;19.27;;
3083;SDS011;1552;51.952;7.618;2024-03-08T08:37:39;37.57;;;17.50;;
3083;SDS011;1552;51.952;7.618;2024-03-08T08:40:06;35.17;;;17.70;;
3083;SDS011;1552;51.952;7.618;2024-03-08T08:42:34;35.87;;;17.87;;
3083;SDS011;1552;51.952;7.618;2024-03-08T08:45:01;35.90;;;18.23;;
3083;SDS011;1552;51.952;7.618;2024-03-08T08:47:29;34.13;;;16.70;;
3083;SDS011;1552;51.952;7.618;2024-03-08T08:49:55;32.77;;;17.20;;
3083;SDS011;1552;51.952;7.618;2024-03-08T08:52:21;29.53;;;16.37;;
3083;SDS011;1552;51.952;7.618;2024-03-08T08:54:49;29.37;;;17.60;;
3083;SDS011;1552;51.952;7.618;2024-03-08T08:57:16;43.97;;;18.50;;
3083;SDS011;1552;51.952;7.618;2024-03-08T08:59:42;33.83;;;15.80;;
3083;SDS011;1552;51.952;7.618;2024-03-08T09:02:08;35.87;;;17.37;;
3083;SDS011;1552;51.952;7.618;2024-03-08T09:04:35;29.87;;;17.07;;
3083;SDS011;1552;51.952;7.618;2024-03-08T09:07:01;34.80;;;17.23;;
3083;SDS011;1552;51.952;7.618;2024-03-08T09:09:31;31.30;;;16.47;;
3083;SDS011;1552;51.952;7.618;2024-03-08T09:11:59;32.83;;;17.63;;
3083;SDS011;1552;51.952;7.618;2024-03-08T09:14:25;29.17;;;16.33;;
3083;SDS011;1552;51.952;7.618;2024-03-08T09:16:52;35.17;;;17.97;;
3083;SDS011;1552;51.952;7.618;2024-03-08T09:19:18;34.60;;;17.23;;
3083;SDS011;1552;51.952;7.618;2024-03-08T09:21:45;27.07;;;16.07;;
3083;SDS011;1552;51.952;7.618;2024-03-08T09:24:12;30.87;;;17.00;;
3083;SDS011;1552;51.952;7.618;2024-03-08T09:26:38;36.70;;;16.67;;
3083;SDS011;1552;51.952;7.618;2024-03-08T09:29:08;37.37;;;18.07;;
3083;SDS011;1552;51.952;7.618;2024-03-08T09:31:35;31.83;;;16.47;;
3083;SDS011;1552;51.952;7.618;2024-03-08T09:34:03;32.60;;;16.90;;
3083;SDS011;1552;51.952;7.618;2024-03-08T09:36:29;35.93;;;17.93;;
3083;SDS011;1552;51.952;7.618;2024-03-08T09:38:57;32.93;;;16.93;;
3083;SDS011;1552;51.952;7.618;2024-03-08T09:41:24;23.57;;;15.10;;
3083;SDS011;1552;51.952;7.618;2024-03-08T09:43:50;32.07;;;16.70;;
3083;SDS011;1552;51.952;7.618;2024-03-08T09:46:18;36.43;;;17.97;;
3083;SDS011;1552;51.952;7.618;2024-03-08T09:48:44;32.80;;;17.73;;
3083;SDS011;1552;51.952;7.618;2024-03-08T09:51:11;30.37;;;16.43;;
3083;SDS011;1552;51.952;7.618;2024-03-08T09:53:40;31.53;;;15.90;;
3083;SDS011;1552;51.952;7.618;2024-03-08T09:56:07;33.03;;;17.43;;
3083;SDS011;1552;51.952;7.618;2024-03-08T09:58:33;28.63;;;15.63;;
3083;SDS011;1552;51.952;7.618;2024-03-08T10:01:17;29.57;;;15.73;;
3083;SDS011;1552;51.952;7.618;2024-03-08T10:03:43;32.00;;;15.93;;
3083;SDS011;1552;51.952;7.618;2024-03-08T10:06:10;30.63;;;15.27;;
3083;SDS011;1552;51.952;7.618;2024-03-08T10:08:36;28.00;;;16.37;;
3083;SDS011;1552;51.952;7.618;2024-03-08T10:11:02;30.07;;;16.37;;
3083;SDS011;1552;51.952;7.618;2024-03-08T10:13:29;32.50;;;16.80;;
3083;SDS011;1552;51.952;7.618;2024-03-08T10:15:56;30.33;;;15.63;;
3083;SDS011;1552;51.952;7.618;2024-03-08T10:18:24;30.37;;;15.77;;
3083;SDS011;1552;51.952;7.618;2024-03-08T10:21:03;28.53;;;16.40;;
3083;SDS011;1552;51.952;7.618;2024-03-08T10:23:35;31.73;;;15.23;;
3083;SDS011;1552;51.952;7.618;2024-03-08T10:26:09;30.70;;;14.77;;
3083;SDS011;1552;51.952;7.618;2024-03-08T10:28:35;31.13;;;15.40;;
3083;SDS011;1552;51.952;7.618;2024-03-08T10:31:01;33.17;;;16.13;;
3083;SDS011;1552;51.952;7.618;2024-03-08T10:33:29;27.43;;;14.20;;
3083;SDS011;1552;51.952;7.618;2024-03-08T10:35:55;26.80;;;14.80;;
3083;SDS011;1552;51.952;7.618;2024-03-08T10:38:22;28.67;;;14.47;;
3083;SDS011;1552;51.952;7.618;2024-03-08T10:40:49;26.27;;;13.37;;
3083;SDS011;1552;51.952;7.618;2024-03-08T10:43:18;26.33;;;13.97;;
3083;SDS011;1552;51.952;7.618;2024-03-08T10:45:49;28.40;;;15.13;;
3083;SDS011;1552;51.952;7.618;2024-03-08T10:48:21;24.87;;;13.97;;
3083;SDS011;1552;51.952;7.618;2024-03-08T10:50:54;26.27;;;14.37;;
3083;SDS011;1552;51.952;7.618;2024-03-08T10:53:21;25.27;;;13.83;;
3083;SDS011;1552;51.952;7.618;2024-03-08T10:55:49;22.37;;;13.33;;
3083;SDS011;1552;51.952;7.618;2024-03-08T10:58:18;26.00;;;13.40;;
3083;SDS011;1552;51.952;7.618;2024-03-08T11:00:45;27.87;;;14.13;;
3083;SDS011;1552;51.952;7.618;2024-03-08T11:05:55;30.73;;;14.27;;
3083;SDS011;1552;51.952;7.618;2024-03-08T11:08:21;26.40;;;13.63;;
3083;SDS011;1552;51.952;7.618;2024-03-08T11:10:48;27.17;;;13.03;;
3083;SDS011;1552;51.952;7.618;2024-03-08T11:13:34;20.37;;;12.70;;
3083;SDS011;1552;51.952;7.618;2024-03-08T11:16:01;25.90;;;13.97;;
3083;SDS011;1552;51.952;7.618;2024-03-08T11:18:31;26.93;;;13.80;;
3083;SDS011;1552;51.952;7.618;2024-03-08T11:20:59;22.57;;;12.63;;
3083;SDS011;1552;51.952;7.618;2024-03-08T11:23:30;23.67;;;12.57;;
3083;SDS011;1552;51.952;7.618;2024-03-08T11:25:56;21.63;;;13.13;;
3083;SDS011;1552;51.952;7.618;2024-03-08T11:28:23;28.60;;;12.53;;
3083;SDS011;1552;51.952;7.618;2024-03-08T11:33:34;32.20;;;12.83;;
3083;SDS011;1552;51.952;7.618;2024-03-08T11:36:03;19.07;;;12.20;;
3083;SDS011;1552;51.952;7.618;2024-03-08T11:38:39;24.37;;;12.80;;
3083;SDS011;1552;51.952;7.618;2024-03-08T11:41:06;24.20;;;12.23;;
3083;SDS011;1552;51.952;7.618;2024-03-08T11:43:33;22.10;;;12.70;;
3083;SDS011;1552;51.952;7.618;2024-03-08T11:46:07;25.97;;;13.03;;
3083;SDS011;1552;51.952;7.618;2024-03-08T11:48:34;23.73;;;12.30;;
3083;SDS011;1552;51.952;7.618;2024-03-08T11:51:00;21.47;;;11.80;;
3083;SDS011;1552;51.952;7.618;2024-03-08T11:53:30;18.37;;;10.87;;
3083;SDS011;1552;51.952;7.618;2024-03-08T11:56:05;20.23;;;11.47;;
3083;SDS011;1552;51.952;7.618;2024-03-08T11:58:31;25.77;;;12.07;;
3083;SDS011;1552;51.952;7.618;2024-03-08T12:01:02;19.70;;;10.97;;
3083;SDS011;1552;51.952;7.618;2024-03-08T12:03:29;19.00;;;11.17;;
3083;SDS011;1552;51.952;7.618;2024-03-08T12:05:59;19.20;;;11.13;;
3083;SDS011;1552;51.952;7.618;2024-03-08T12:08:25;21.73;;;11.37;;
3083;SDS011;1552;51.952;7.618;2024-03-08T12:10:54;20.60;;;11.80;;
3083;SDS011;1552;51.952;7.618;2024-03-08T12:13:24;22.17;;;10.63;;
3083;SDS011;1552;51.952;7.618;2024-03-08T12:15:50;21.57;;;10.70;;
3083;SDS011;1552;51.952;7.618;2024-03-08T12:18:17;18.77;;;10.17;;
3083;SDS011;1552;51.952;7.618;2024-03-08T12:20:43;20.13;;;9.93;;
3083;SDS011;1552;51.952;7.618;2024-03-08T12:23:15;20.33;;;11.07;;
3083;SDS011;1552;51.952;7.618;2024-03-08T12:25:41;23.00;;;11.37;;
3083;SDS011;1552;51.952;7.618;2024-03-08T12:28:09;19.73;;;10.93;;
3083;SDS011;1552;51.952;7.618;2024-03-08T12:30:37;23.03;;;12.17;;
3083;SDS011;1552;51.952;7.618;2024-03-08T12:33:10;17.17;;;9.83;;
3083;SDS011;1552;51.952;7.618;2024-03-08T12:35:37;21.17;;;10.93;;
3083;SDS011;1552;51.952;7.618;2024-03-08T12:38:04;20.47;;;11.00;;
3083;SDS011;1552;51.952;7.618;2024-03-08T12:40:32;18.60;;;10.67;;
3083;SDS011;1552;51.952;7.618;2024-03-08T12:42:59;21.53;;;11.57;;
3083;SDS011;1552;51.952;7.618;2024-03-08T12:45:27;16.67;;;9.83;;
3083;SDS011;1552;51.952;7.618;2024-03-08T12:47:54;18.00;;;9.57;;
3083;SDS011;1552;51.952;7.618;2024-03-08T12:50:20;17.90;;;10.87;;
3083;SDS011;1552;51.952;7.618;2024-03-08T12:52:47;18.20;;;10.87;;
3083;SDS011;1552;51.952;7.618;2024-03-08T12:55:13;20.03;;;10.97;;
3083;SDS011;1552;51.952;7.618;2024-03-08T12:57:41;19.47;;;10.40;;
3083;SDS011;1552;51.952;7.618;2024-03-08T13:00:08;19.00;;;10.93;;
3083;SDS011;1552;51.952;7.618;2024-03-08T13:02:39;18.53;;;10.77;;
3083;SDS011;1552;51.952;7.618;2024-03-08T13:05:07;17.60;;;10.70;;
3083;SDS011;1552;51.952;7.618;2024-03-08T13:07:34;17.17;;;10.37;;
3083;SDS011;1552;51.952;7.618;2024-03-08T13:10:02;16.50;;;9.87;;
3083;SDS011;1552;51.952;7.618;2024-03-08T13:12:29;15.33;;;10.30;;
3083;SDS011;1552;51.952;7.618;2024-03-08T13:14:56;17.27;;;10.43;;
3083;SDS011;1552;51.952;7.618;2024-03-08T13:17:22;20.30;;;10.90;;
3083;SDS011;1552;51.952;7.618;2024-03-08T13:19:50;22.67;;;11.53;;
3083;SDS011;1552;51.952;7.618;2024-03-08T13:22:16;21.50;;;11.00;;
3083;SDS011;1552;51.952;7.618;2024-03-08T13:24:43;19.17;;;11.10;;
3083;SDS011;1552;51.952;7.618;2024-03-08T13:27:10;16.23;;;10.03;;
3083;SDS011;1552;51.952;7.618;2024-03-08T13:29:44;20.33;;;10.97;;
3083;SDS011;1552;51.952;7.618;2024-03-08T13:32:11;24.77;;;11.67;;
3083;SDS011;1552;51.952;7.618;2024-03-08T13:34:40;20.90;;;11.43;;
3083;SDS011;1552;51.952;7.618;2024-03-08T13:37:08;20.77;;;10.70;;
3083;SDS011;1552;51.952;7.618;2024-03-08T13:39:34;18.90;;;10.73;;
3083;SDS011;1552;51.952;7.618;2024-03-08T13:42:06;23.77;;;11.60;;
3083;SDS011;1552;51.952;7.618;2024-03-08T13:44:34;18.37;;;10.40;;
3083;SDS011;1552;51.952;7.618;2024-03-08T13:47:01;22.20;;;11.37;;
3083;SDS011;1552;51.952;7.618;2024-03-08T13:49:29;21.63;;;10.67;;
3083;SDS011;1552;51.952;7.618;2024-03-08T13:51:56;16.90;;;10.37;;
3083;SDS011;1552;51.952;7.618;2024-03-08T13:54:25;21.13;;;10.80;;
3083;SDS011;1552;51.952;7.618;2024-03-08T13:56:52;16.73;;;10.87;;
3083;SDS011;1552;51.952;7.618;2024-03-08T13:59:19;18.13;;;11.10;;
3083;SDS011;1552;51.952;7.618;2024-03-08T14:01:47;18.40;;;11.17;;
3083;SDS011;1552;51.952;7.618;2024-03-08T14:04:14;16.70;;;10.07;;
3083;SDS011;1552;51.952;7.618;2024-03-08T14:06:40;19.40;;;10.13;;
3083;SDS011;1552;51.952;7.618;2024-03-08T14:09:08;22.23;;;12.00;;
3083;SDS011;1552;51.952;7.618;2024-03-08T14:11:35;20.97;;;11.07;;
3083;SDS011;1552;51.952;7.618;2024-03-08T14:14:02;20.60;;;11.57;;
3083;SDS011;1552;51.952;7.618;2024-03-08T14:16:29;18.70;;;10.57;;
3083;SDS011;1552;51.952;7.618;2024-03-08T14:18:55;19.63;;;11.20;;
3083;SDS011;1552;51.952;7.618;2024-03-08T14:21:22;20.90;;;11.70;;
3083;SDS011;1552;51.952;7.618;2024-03-08T14:23:48;22.10;;;11.43;;
3083;SDS011;1552;51.952;7.618;2024-03-08T14:26:17;16.57;;;10.40;;
3083;SDS011;1552;51.952;7.618;2024-03-08T14:28:47;22.17;;;11.63;;
3083;SDS011;1552;51.952;7.618;2024-03-08T14:31:16;20.63;;;11.97;;
3083;SDS011;1552;51.952;7.618;2024-03-08T14:33:44;18.70;;;11.80;;
3083;SDS011;1552;51.952;7.618;2024-03-08T14:36:14;19.47;;;11.77;;
3083;SDS011;1552;51.952;7.618;2024-03-08T14:38:42;22.77;;;11.93;;
3083;SDS011;1552;51.952;7.618;2024-03-08T14:41:08;22.57;;;10.87;;
3083;SDS011;1552;51.952;7.618;2024-03-08T14:43:34;19.53;;;12.33;;
3083;SDS011;1552;51.952;7.618;2024-03-08T14:46:03;20.83;;;11.63;;
3083;SDS011;1552;51.952;7.618;2024-03-08T14:48:29;22.73;;;12.47;;
3083;SDS011;1552;51.952;7.618;2024-03-08T14:50:55;27.07;;;12.27;;
3083;SDS011;1552;51.952;7.618;2024-03-08T14:53:22;23.17;;;12.43;;
3083;SDS011;1552;51.952;7.618;2024-03-08T14:55:49;24.53;;;12.27;;